HE31 weather

Malan Frein Airport
Matruh Governorate, Egypt

Public forecast

Using degrees Celsius for public forecast. Weather courtesy of forecast.io.

Closest aviation weather report (METAR) to Malan Frein Airport

Report is more than 6 hours old.

Closest report is El Alamein International Airport, 67.0 nm (124.1 km) N. Retrieved 2019/06/07 11:00 UTC (4 months ago):

HEAL 071100Z 32014KT CAVOK 41/14 Q1008 NOSIG

Closest aviation forecast (TAF) to Malan Frein Airport

Closest forecast is El Alamein International Airport, 67.0 nm (124.1 km) N. Retrieved 2019/10/17 12:00 UTC (2 hours ago):

TAF HEAL 171100Z 1712/1818 03011KT 9999 FEW020